sensor_id;sensor_type;location;lat;lon;timestamp;pressure;altitude;pressure_sealevel;temperature;humidity
63582;BME280;49727;51.078;17.066;2023-05-24T00:04:23;100001.69;;;14.72;75.37
63582;BME280;49727;51.078;17.066;2023-05-24T00:19:24;100013.44;;;14.22;76.24
63582;BME280;49727;51.078;17.066;2023-05-24T00:34:26;100019.28;;;13.69;77.00
63582;BME280;49727;51.078;17.066;2023-05-24T00:49:26;100031.66;;;13.20;77.61
63582;BME280;49727;51.078;17.066;2023-05-24T01:04:27;100046.41;;;12.95;78.11
63582;BME280;49727;51.078;17.066;2023-05-24T01:34:42;100073.97;;;12.29;78.90
63582;BME280;49727;51.078;17.066;2023-05-24T01:49:48;100098.66;;;11.93;78.90
63582;BME280;49727;51.078;17.066;2023-05-24T02:04:49;100111.59;;;11.66;78.77
63582;BME280;49727;51.078;17.066;2023-05-24T02:19:50;100131.78;;;11.37;78.68
63582;BME280;49727;51.078;17.066;2023-05-24T02:34:50;100133.78;;;11.12;78.63
63582;BME280;49727;51.078;17.066;2023-05-24T02:49:51;100162.22;;;10.88;78.31
63582;BME280;49727;51.078;17.066;2023-05-24T03:04:52;100178.72;;;10.83;78.50
63582;BME280;49727;51.078;17.066;2023-05-24T03:19:52;100191.34;;;10.90;78.57
63582;BME280;49727;51.078;17.066;2023-05-24T03:34:52;100200.03;;;10.83;78.91
63582;BME280;49727;51.078;17.066;2023-05-24T03:49:53;100192.38;;;10.80;78.66
63582;BME280;49727;51.078;17.066;2023-05-24T04:04:54;100194.69;;;10.83;78.70
63582;BME280;49727;51.078;17.066;2023-05-24T04:19:55;100221.84;;;10.87;78.17
63582;BME280;49727;51.078;17.066;2023-05-24T04:34:55;100230.00;;;10.94;78.55
63582;BME280;49727;51.078;17.066;2023-05-24T04:49:55;100241.56;;;11.17;77.92
63582;BME280;49727;51.078;17.066;2023-05-24T05:04:55;100256.50;;;11.35;77.30
63582;BME280;49727;51.078;17.066;2023-05-24T05:19:56;100277.13;;;11.41;77.66
63582;BME280;49727;51.078;17.066;2023-05-24T05:34:56;100304.59;;;11.50;76.55
63582;BME280;49727;51.078;17.066;2023-05-24T05:49:56;100310.66;;;11.35;76.19
63582;BME280;49727;51.078;17.066;2023-05-24T06:04:57;100326.06;;;11.65;75.93
63582;BME280;49727;51.078;17.066;2023-05-24T06:19:57;100334.94;;;12.66;73.83
63582;BME280;49727;51.078;17.066;2023-05-24T06:34:58;100344.88;;;13.26;72.35
63582;BME280;49727;51.078;17.066;2023-05-24T06:49:58;100379.69;;;13.56;70.32
63582;BME280;49727;51.078;17.066;2023-05-24T07:05:00;100388.91;;;13.83;67.83
63582;BME280;49727;51.078;17.066;2023-05-24T07:20:00;100409.75;;;14.39;66.02
63582;BME280;49727;51.078;17.066;2023-05-24T07:35:01;100417.59;;;14.62;64.13
63582;BME280;49727;51.078;17.066;2023-05-24T07:50:01;100427.91;;;15.02;62.87
63582;BME280;49727;51.078;17.066;2023-05-24T08:05:02;100455.56;;;14.44;62.56
63582;BME280;49727;51.078;17.066;2023-05-24T08:20:04;100455.03;;;15.14;62.10
63582;BME280;49727;51.078;17.066;2023-05-24T08:35:08;100459.78;;;16.10;59.50
63582;BME280;49727;51.078;17.066;2023-05-24T08:50:09;100465.84;;;17.34;57.33
63582;BME280;49727;51.078;17.066;2023-05-24T09:05:12;100474.28;;;17.78;53.68
63582;BME280;49727;51.078;17.066;2023-05-24T09:20:16;100483.56;;;18.09;51.77
63582;BME280;49727;51.078;17.066;2023-05-24T09:35:17;100489.50;;;19.34;49.04
63582;BME280;49727;51.078;17.066;2023-05-24T09:50:18;100481.78;;;20.00;46.76
63582;BME280;49727;51.078;17.066;2023-05-24T10:05:18;100503.09;;;19.20;46.71
63582;BME280;49727;51.078;17.066;2023-05-24T10:20:18;100504.13;;;17.97;47.01
63582;BME280;49727;51.078;17.066;2023-05-24T10:35:20;100509.31;;;17.85;47.75
63582;BME280;49727;51.078;17.066;2023-05-24T10:50:22;100522.44;;;18.47;47.08
63582;BME280;49727;51.078;17.066;2023-05-24T11:05:22;100520.59;;;18.34;47.52
63582;BME280;49727;51.078;17.066;2023-05-24T11:20:23;100529.31;;;18.36;47.13
63582;BME280;49727;51.078;17.066;2023-05-24T11:35:26;100528.75;;;18.07;46.90
63582;BME280;49727;51.078;17.066;2023-05-24T11:50:27;100540.84;;;17.98;47.39
63582;BME280;49727;51.078;17.066;2023-05-24T12:05:27;100540.16;;;18.16;47.37
63582;BME280;49727;51.078;17.066;2023-05-24T12:20:31;100539.47;;;18.79;46.39
63582;BME280;49727;51.078;17.066;2023-05-24T12:35:31;100531.53;;;18.98;45.93
63582;BME280;49727;51.078;17.066;2023-05-24T12:50:31;100527.19;;;19.47;45.30
63582;BME280;49727;51.078;17.066;2023-05-24T13:05:33;100532.81;;;19.45;45.23
63582;BME280;49727;51.078;17.066;2023-05-24T13:20:34;100540.31;;;19.18;45.20
63582;BME280;49727;51.078;17.066;2023-05-24T13:35:34;100538.19;;;19.20;45.17
63582;BME280;49727;51.078;17.066;2023-05-24T13:50:35;100539.94;;;19.65;44.08
63582;BME280;49727;51.078;17.066;2023-05-24T14:05:35;100535.50;;;19.71;44.23
63582;BME280;49727;51.078;17.066;2023-05-24T14:20:37;100535.94;;;20.98;42.86
63582;BME280;49727;51.078;17.066;2023-05-24T14:35:39;100534.16;;;20.91;42.10
63582;BME280;49727;51.078;17.066;2023-05-24T14:50:39;100530.59;;;20.42;42.35
63582;BME280;49727;51.078;17.066;2023-05-24T15:05:40;100533.66;;;20.15;42.21
63582;BME280;49727;51.078;17.066;2023-05-24T15:20:41;100529.56;;;20.43;42.36
63582;BME280;49727;51.078;17.066;2023-05-24T15:35:42;100529.13;;;20.27;42.44
63582;BME280;49727;51.078;17.066;2023-05-24T15:50:42;100515.59;;;19.90;42.43
63582;BME280;49727;51.078;17.066;2023-05-24T16:05:43;100517.50;;;19.39;43.56
63582;BME280;49727;51.078;17.066;2023-05-24T16:20:43;100530.56;;;18.78;44.22
63582;BME280;49727;51.078;17.066;2023-05-24T16:35:44;100529.69;;;18.39;45.52
63582;BME280;49727;51.078;17.066;2023-05-24T16:50:47;100550.53;;;18.12;46.17
63582;BME280;49727;51.078;17.066;2023-05-24T17:05:47;100565.94;;;17.65;47.02
63582;BME280;49727;51.078;17.066;2023-05-24T17:20:49;100580.19;;;17.18;47.75
63582;BME280;49727;51.078;17.066;2023-05-24T17:35:50;100594.91;;;16.74;48.97
63582;BME280;49727;51.078;17.066;2023-05-24T17:50:51;100602.22;;;16.03;50.53
63582;BME280;49727;51.078;17.066;2023-05-24T18:05:51;100621.63;;;15.34;52.03
63582;BME280;49727;51.078;17.066;2023-05-24T18:20:51;100647.38;;;14.77;53.67
63582;BME280;49727;51.078;17.066;2023-05-24T18:35:52;100657.22;;;14.16;55.03
63582;BME280;49727;51.078;17.066;2023-05-24T18:50:52;100679.78;;;13.61;56.77
63582;BME280;49727;51.078;17.066;2023-05-24T19:05:53;100687.53;;;13.16;57.92
63582;BME280;49727;51.078;17.066;2023-05-24T19:20:53;100693.88;;;12.75;59.23
63582;BME280;49727;51.078;17.066;2023-05-24T19:35:54;100689.97;;;12.38;60.88
63582;BME280;49727;51.078;17.066;2023-05-24T19:50:54;100696.69;;;12.09;61.81
63582;BME280;49727;51.078;17.066;2023-05-24T20:05:54;100697.66;;;11.83;63.48
63582;BME280;49727;51.078;17.066;2023-05-24T20:20:55;100711.16;;;11.65;64.30
63582;BME280;49727;51.078;17.066;2023-05-24T20:35:57;100724.78;;;11.46;65.42
63582;BME280;49727;51.078;17.066;2023-05-24T20:50:57;100720.56;;;11.27;65.95
63582;BME280;49727;51.078;17.066;2023-05-24T21:05:57;100733.53;;;11.13;66.55
63582;BME280;49727;51.078;17.066;2023-05-24T21:20:58;100750.78;;;11.01;68.33
63582;BME280;49727;51.078;17.066;2023-05-24T21:35:59;100766.00;;;10.82;68.50
63582;BME280;49727;51.078;17.066;2023-05-24T21:50:59;100774.22;;;10.63;69.61
63582;BME280;49727;51.078;17.066;2023-05-24T22:05:59;100780.59;;;10.44;69.87
63582;BME280;49727;51.078;17.066;2023-05-24T22:21:00;100781.56;;;10.25;70.63
63582;BME280;49727;51.078;17.066;2023-05-24T22:36:05;100792.16;;;10.16;71.33
63582;BME280;49727;51.078;17.066;2023-05-24T22:51:05;100786.50;;;10.02;71.84
63582;BME280;49727;51.078;17.066;2023-05-24T23:06:06;100787.81;;;9.79;72.35
63582;BME280;49727;51.078;17.066;2023-05-24T23:21:07;100796.53;;;9.72;72.62
63582;BME280;49727;51.078;17.066;2023-05-24T23:36:11;100795.22;;;9.58;73.01
63582;BME280;49727;51.078;17.066;2023-05-24T23:51:11;100797.69;;;9.41;73.09
